createdAt,value
2019-06-07T00:01:37.499Z,97877.00
2019-06-07T00:05:38.389Z,97874.00
2019-06-07T00:09:39.354Z,97867.00
2019-06-07T00:13:40.245Z,97865.00
2019-06-07T00:17:41.261Z,97875.00
2019-06-07T00:22:13.506Z,97876.00
2019-06-07T00:25:45.105Z,97871.00
2019-06-07T00:29:46.121Z,97874.00
2019-06-07T00:33:47.170Z,97864.00
2019-06-07T00:37:48.024Z,97868.00
2019-06-07T00:41:48.915Z,97864.00
2019-06-07T00:45:49.788Z,97862.00
2019-06-07T00:49:50.753Z,97853.00
2019-06-07T00:53:51.827Z,97843.00
2019-06-07T00:57:52.987Z,97838.00
2019-06-07T01:01:53.843Z,97838.00
2019-06-07T01:05:54.693Z,97843.00
2019-06-07T01:09:55.703Z,97838.00
2019-06-07T01:13:56.548Z,97840.00
2019-06-07T01:18:33.750Z,97841.00
2019-06-07T01:22:00.290Z,97829.00
2019-06-07T01:26:01.148Z,97826.00
2019-06-07T01:30:10.634Z,97827.00
2019-06-07T01:34:11.514Z,97821.00
2019-06-07T01:38:12.398Z,97812.00
2019-06-07T01:42:13.282Z,97810.00
2019-06-07T01:46:14.139Z,97810.00
2019-06-07T01:50:17.272Z,97809.00
2019-06-07T01:54:52.138Z,97816.00
2019-06-07T01:58:26.117Z,97813.00
2019-06-07T02:02:28.252Z,97813.00
2019-06-07T02:06:32.048Z,97809.00
2019-06-07T02:10:33.628Z,97815.00
2019-06-07T02:14:34.376Z,97814.00
2019-06-07T02:18:35.347Z,97816.00
2019-06-07T02:22:36.238Z,97811.00
2019-06-07T02:26:37.217Z,97804.00
2019-06-07T02:30:47.178Z,97803.00
2019-06-07T02:34:40.869Z,97800.00
2019-06-07T02:38:41.844Z,97797.00
2019-06-07T02:42:43.070Z,97794.00
2019-06-07T02:46:48.716Z,97790.00
2019-06-07T02:50:47.776Z,97793.00
2019-06-07T02:54:48.664Z,97790.00
2019-06-07T02:58:49.719Z,97787.00
2019-06-07T03:02:50.724Z,97783.00
2019-06-07T03:06:52.495Z,97788.00
2019-06-07T03:10:53.894Z,97780.00
2019-06-07T03:14:55.048Z,97779.00
2019-06-07T03:19:02.123Z,97785.00
2019-06-07T03:23:03.511Z,97788.00
2019-06-07T03:27:34.325Z,97785.00
2019-06-07T03:31:07.384Z,97781.00
2019-06-07T03:35:08.447Z,97784.00
2019-06-07T03:39:09.403Z,97782.00
2019-06-07T03:43:10.278Z,97780.00
2019-06-07T03:47:11.163Z,97783.00
2019-06-07T03:51:24.898Z,97786.00
2019-06-07T03:55:14.989Z,97781.00
2019-06-07T03:59:15.868Z,97769.00
2019-06-07T04:03:32.815Z,97773.00
2019-06-07T04:07:19.514Z,97768.00
2019-06-07T04:11:20.518Z,97766.00
2019-06-07T04:15:21.352Z,97768.00
2019-06-07T04:19:22.229Z,97768.00
2019-06-07T04:23:29.903Z,97759.00
2019-06-07T04:27:26.078Z,97755.00
2019-06-07T04:31:28.264Z,97755.00
2019-06-07T04:35:31.377Z,97751.00
2019-06-07T04:39:37.785Z,97754.00
2019-06-07T04:43:40.929Z,97750.00
2019-06-07T04:47:42.387Z,97749.00
2019-06-07T04:51:44.499Z,97745.00
2019-06-07T04:55:45.353Z,97735.00
2019-06-07T05:00:22.282Z,97735.00
2019-06-07T05:03:49.243Z,97725.00
2019-06-07T05:07:50.221Z,97720.00
2019-06-07T05:11:51.098Z,97722.00
2019-06-07T05:15:51.963Z,97718.00
2019-06-07T05:19:52.833Z,97715.00
2019-06-07T05:24:06.463Z,97695.00
2019-06-07T05:27:56.511Z,97703.00
2019-06-07T05:31:57.656Z,97708.00
2019-06-07T05:35:58.543Z,97708.00
2019-06-07T05:39:59.455Z,97700.00
2019-06-07T05:44:12.180Z,97697.00
2019-06-07T05:48:04.632Z,97696.00
2019-06-07T05:52:05.751Z,97690.00
2019-06-07T05:56:06.796Z,97698.00
2019-06-07T06:00:07.955Z,97689.00
2019-06-07T06:04:08.843Z,97687.00
2019-06-07T06:08:09.803Z,97700.00
2019-06-07T06:12:10.850Z,97702.00
2019-06-07T06:16:11.926Z,97698.00
2019-06-07T06:20:14.179Z,97687.00
2019-06-07T06:24:15.037Z,97689.00
2019-06-07T06:28:16.363Z,97687.00
2019-06-07T06:36:21.022Z,97681.00
2019-06-07T06:40:23.742Z,97693.00
2019-06-07T06:44:24.598Z,97691.00
2019-06-07T06:48:25.465Z,97686.00
2019-06-07T06:52:26.316Z,97683.00
2019-06-07T06:56:27.188Z,97688.00
2019-06-07T07:00:56.886Z,97684.00
2019-06-07T07:04:53.435Z,97684.00
2019-06-07T07:08:53.425Z,97687.00
2019-06-07T07:12:54.606Z,97680.00
2019-06-07T07:16:56.641Z,97688.00
2019-06-07T07:20:57.856Z,97666.00
2019-06-07T07:24:58.923Z,97659.00
2019-06-07T07:28:59.806Z,97657.00
2019-06-07T07:33:00.697Z,97661.00
2019-06-07T07:37:01.713Z,97649.00
2019-06-07T07:41:14.635Z,97662.00
2019-06-07T07:45:06.026Z,97669.00
2019-06-07T07:49:06.901Z,97639.00
2019-06-07T07:53:08.014Z,97660.00
2019-06-07T07:57:09.005Z,97662.00
2019-06-07T08:01:11.232Z,97646.00
2019-06-07T08:05:23.484Z,97656.00
2019-06-07T08:09:15.502Z,97639.00
2019-06-07T08:13:25.996Z,97635.00
2019-06-07T08:17:19.194Z,97637.00
2019-06-07T08:21:25.990Z,97628.00
2019-06-07T08:25:23.134Z,97622.00
2019-06-07T08:29:24.027Z,97618.00
2019-06-07T08:33:26.711Z,97620.00
2019-06-07T08:38:13.229Z,97607.00
2019-06-07T08:41:30.624Z,97600.00
2019-06-07T08:45:31.714Z,97599.00
2019-06-07T08:49:32.790Z,97602.00
2019-06-07T08:53:33.686Z,97585.00
2019-06-07T08:57:34.749Z,97585.00
2019-06-07T09:01:35.662Z,97583.00
2019-06-07T09:05:36.651Z,97590.00
2019-06-07T09:09:37.568Z,97582.00
2019-06-07T09:13:38.467Z,97578.00
2019-06-07T09:18:29.693Z,97584.00
2019-06-07T09:21:42.402Z,97580.00
2019-06-07T09:25:56.716Z,97573.00
2019-06-07T09:29:46.387Z,97562.00
2019-06-07T09:33:47.411Z,97565.00
2019-06-07T09:38:07.890Z,97554.00
2019-06-07T09:41:51.304Z,97561.00
2019-06-07T09:45:52.201Z,97557.00
2019-06-07T09:49:53.145Z,97549.00
2019-06-07T09:53:54.130Z,97540.00
2019-06-07T09:57:56.509Z,97537.00
2019-06-07T10:01:59.515Z,97532.00
2019-06-07T10:06:07.604Z,97538.00
2019-06-07T10:14:06.867Z,97523.00
2019-06-07T10:18:09.238Z,97516.00
2019-06-07T10:22:10.356Z,97510.00
2019-06-07T10:26:11.311Z,97498.00
2019-06-07T10:30:12.771Z,97494.00
2019-06-07T10:34:13.663Z,97498.00
2019-06-07T10:38:15.086Z,97491.00
2019-06-07T10:42:16.043Z,97482.00
2019-06-07T10:46:16.930Z,97474.00
2019-06-07T10:50:18.245Z,97468.00
2019-06-07T10:54:27.854Z,97457.00
2019-06-07T10:58:21.978Z,97447.00
2019-06-07T11:02:22.881Z,97450.00
2019-06-07T11:06:23.753Z,97445.00
2019-06-07T11:10:24.899Z,97430.00
2019-06-07T11:14:25.809Z,97443.00
2019-06-07T11:18:26.779Z,97435.00
2019-06-07T11:22:27.793Z,97425.00
2019-06-07T11:26:28.654Z,97430.00
2019-06-07T11:30:29.649Z,97432.00
2019-06-07T11:34:30.562Z,97414.00
2019-06-07T11:38:31.625Z,97411.00
2019-06-07T11:42:32.582Z,97424.00
2019-06-07T11:46:33.570Z,97413.00
2019-06-07T11:50:34.435Z,97400.00
2019-06-07T11:54:35.547Z,97386.00
2019-06-07T11:58:36.556Z,97398.00
2019-06-07T12:02:37.400Z,97377.00
2019-06-07T12:06:38.734Z,97385.00
2019-06-07T12:10:42.454Z,97381.00
2019-06-07T12:14:42.537Z,97372.00
2019-06-07T12:18:43.429Z,97365.00
2019-06-07T12:22:44.321Z,97371.00
2019-06-07T12:26:45.210Z,97375.00
2019-06-07T12:30:46.119Z,97383.00
2019-06-07T12:34:47.018Z,97377.00
2019-06-07T12:38:47.890Z,97370.00
2019-06-07T12:42:48.888Z,97360.00
2019-06-07T12:46:49.876Z,97351.00
2019-06-07T12:50:50.856Z,97354.00
2019-06-07T12:54:51.719Z,97353.00
2019-06-07T12:58:52.612Z,97350.00
2019-06-07T13:02:53.731Z,97355.00
2019-06-07T13:06:54.701Z,97350.00
2019-06-07T13:10:55.638Z,97351.00
2019-06-07T13:14:56.638Z,97349.00
2019-06-07T13:18:57.824Z,97350.00
2019-06-07T13:22:58.910Z,97354.00
2019-06-07T13:26:59.948Z,97354.00
2019-06-07T13:31:00.826Z,97354.00
2019-06-07T13:35:03.502Z,97355.00
2019-06-07T13:39:05.709Z,97339.00
2019-06-07T13:43:06.604Z,97302.00
2019-06-07T13:47:07.579Z,97301.00
2019-06-07T13:51:08.474Z,97290.00
2019-06-07T13:55:11.039Z,97281.00
2019-06-07T13:59:11.921Z,97278.00
2019-06-07T14:03:12.933Z,97255.00
2019-06-07T14:07:13.889Z,97248.00
2019-06-07T14:11:14.896Z,97244.00
2019-06-07T14:15:15.937Z,97245.00
2019-06-07T14:19:16.812Z,97240.00
2019-06-07T14:23:17.812Z,97237.00
2019-06-07T14:27:18.757Z,97246.00
2019-06-07T14:31:19.763Z,97237.00
2019-06-07T14:35:20.934Z,97243.00
2019-06-07T14:39:23.046Z,97237.00
2019-06-07T14:43:24.924Z,97240.00
2019-06-07T14:47:26.124Z,97227.00
2019-06-07T14:51:28.266Z,97258.00
2019-06-07T14:55:29.308Z,97254.00
2019-06-07T14:59:30.462Z,97257.00
2019-06-07T15:03:32.699Z,97256.00
2019-06-07T15:07:34.867Z,97260.00
2019-06-07T15:11:35.849Z,97254.00
2019-06-07T15:15:36.736Z,97248.00
2019-06-07T15:19:39.056Z,97248.00
2019-06-07T15:23:40.181Z,97245.00
2019-06-07T15:27:41.047Z,97246.00
2019-06-07T15:31:42.023Z,97249.00
2019-06-07T15:35:42.997Z,97239.00
2019-06-07T15:39:43.843Z,97235.00
2019-06-07T15:43:44.854Z,97228.00
2019-06-07T15:47:45.728Z,97226.00
2019-06-07T15:51:46.621Z,97223.00
2019-06-07T15:55:50.615Z,97249.00
2019-06-07T15:59:52.352Z,97265.00
2019-06-07T16:03:56.420Z,97263.00
2019-06-07T16:08:01.097Z,97235.00
2019-06-07T16:12:05.564Z,97282.00
2019-06-07T16:16:10.180Z,97286.00
2019-06-07T16:20:11.901Z,97241.00
2019-06-07T16:24:12.808Z,97262.00
2019-06-07T16:28:13.705Z,97240.00
2019-06-07T16:32:14.714Z,97224.00
2019-06-07T16:36:15.650Z,97243.00
2019-06-07T16:40:16.928Z,97253.00
2019-06-07T16:44:17.867Z,97226.00
2019-06-07T16:48:18.968Z,97213.00
2019-06-07T16:52:20.026Z,97226.00
2019-06-07T16:56:20.921Z,97220.00
2019-06-07T17:00:22.431Z,97223.00
2019-06-07T17:04:23.546Z,97215.00
2019-06-07T17:08:24.892Z,97194.00
2019-06-07T17:12:25.776Z,97185.00
2019-06-07T17:16:26.641Z,97190.00
2019-06-07T17:20:27.530Z,97229.00
2019-06-07T17:24:49.684Z,97257.00
2019-06-07T17:28:50.927Z,97293.00
2019-06-07T17:32:59.035Z,97354.00
2019-06-07T17:36:54.536Z,97431.00
2019-06-07T17:40:55.476Z,97385.00
2019-06-07T17:44:56.463Z,97443.00
2019-06-07T17:48:57.441Z,97473.00
2019-06-07T17:52:58.437Z,97448.00
2019-06-07T17:56:59.554Z,97498.00
2019-06-07T18:01:00.612Z,97471.00
2019-06-07T18:05:02.628Z,97477.00
2019-06-07T18:09:06.227Z,97474.00
2019-06-07T18:13:07.438Z,97517.00
2019-06-07T18:17:08.407Z,97503.00
2019-06-07T18:21:09.302Z,97513.00
2019-06-07T18:25:10.268Z,97539.00
2019-06-07T18:29:11.170Z,97563.00
2019-06-07T18:33:12.204Z,97581.00
2019-06-07T18:37:13.169Z,97636.00
2019-06-07T18:41:14.339Z,97580.00
2019-06-07T18:45:15.442Z,97649.00
2019-06-07T18:49:16.366Z,97642.00
2019-06-07T18:53:17.442Z,97617.00
2019-06-07T18:57:22.058Z,97604.00
2019-06-07T19:01:23.983Z,97595.00
2019-06-07T19:05:25.502Z,97616.00
2019-06-07T19:09:26.390Z,97610.00
2019-06-07T19:13:27.411Z,97569.00
2019-06-07T19:17:28.435Z,97601.00
2019-06-07T19:21:32.274Z,97634.00
2019-06-07T19:25:32.382Z,97680.00
2019-06-07T19:29:33.280Z,97661.00
2019-06-07T19:33:48.414Z,97656.00
2019-06-07T19:37:37.258Z,97641.00
2019-06-07T19:41:38.369Z,97644.00
2019-06-07T19:45:39.436Z,97653.00
2019-06-07T19:49:40.510Z,97663.00
2019-06-07T19:53:42.802Z,97674.00
2019-06-07T19:57:45.735Z,97705.00
2019-06-07T20:01:47.220Z,97715.00
2019-06-07T20:05:48.125Z,97731.00
2019-06-07T20:09:49.195Z,97705.00
2019-06-07T20:13:50.359Z,97750.00
2019-06-07T20:17:51.455Z,97736.00
2019-06-07T20:21:58.780Z,97714.00
2019-06-07T20:26:00.096Z,97706.00
2019-06-07T20:30:02.459Z,97699.00
2019-06-07T20:34:04.248Z,97681.00
2019-06-07T20:38:06.468Z,97662.00
2019-06-07T20:42:07.828Z,97664.00
2019-06-07T20:46:08.937Z,97672.00
2019-06-07T20:50:10.246Z,97681.00
2019-06-07T20:54:11.129Z,97710.00
2019-06-07T20:58:12.011Z,97747.00
2019-06-07T21:02:13.414Z,97778.00
2019-06-07T21:06:14.529Z,97769.00
2019-06-07T21:10:15.514Z,97798.00
2019-06-07T21:14:16.398Z,97794.00
2019-06-07T21:18:19.867Z,97812.00
2019-06-07T21:22:20.143Z,97798.00
2019-06-07T21:26:21.135Z,97798.00
2019-06-07T21:30:22.085Z,97808.00
2019-06-07T21:34:23.029Z,97809.00
2019-06-07T21:38:24.623Z,97838.00
2019-06-07T21:42:25.750Z,97837.00
2019-06-07T21:46:26.608Z,97837.00
2019-06-07T21:50:27.620Z,97830.00
2019-06-07T21:54:28.626Z,97822.00
2019-06-07T21:58:29.643Z,97786.00
2019-06-07T22:02:31.241Z,97805.00
2019-06-07T22:06:32.389Z,97787.00
2019-06-07T22:10:33.453Z,97780.00
2019-06-07T22:14:34.454Z,97794.00
2019-06-07T22:18:35.598Z,97798.00
2019-06-07T22:22:36.714Z,97809.00
2019-06-07T22:26:37.703Z,97769.00
2019-06-07T22:30:38.589Z,97759.00
2019-06-07T22:34:39.723Z,97769.00
2019-06-07T22:38:40.722Z,97782.00
2019-06-07T22:42:41.664Z,97783.00
2019-06-07T22:46:42.589Z,97773.00
2019-06-07T22:50:43.589Z,97771.00
2019-06-07T22:54:44.508Z,97781.00
2019-06-07T22:58:45.816Z,97771.00
2019-06-07T23:02:46.909Z,97796.00
2019-06-07T23:06:47.793Z,97805.00
2019-06-07T23:10:48.717Z,97811.00
2019-06-07T23:14:49.608Z,97812.00
2019-06-07T23:18:50.503Z,97835.00
2019-06-07T23:22:51.404Z,97830.00
2019-06-07T23:26:52.348Z,97830.00
2019-06-07T23:30:53.250Z,97829.00
2019-06-07T23:34:54.251Z,97834.00
2019-06-07T23:38:55.267Z,97839.00
2019-06-07T23:42:56.290Z,97821.00
2019-06-07T23:47:10.355Z,97816.00
2019-06-07T23:51:00.549Z,97819.00
2019-06-07T23:55:02.907Z,97825.00
2019-06-07T23:59:03.901Z,97838.00
